Taiki Maru — JI3464 — position and weather

sailwx.info

Track history (hours):
 
Tides and Currents Weather Stations Pressure Air Temp Water Temp Dewpoint Dewpoint Depression Visibility Wind Speed Wind Dir Waves Ship Positions

Taiki Maru

Last reported at 2015-Apr-19 04:14 UTC. Time now 2015-Apr-21 13:11 UTC.
Position N 34°05' E 135°01'.

Length 93 m; draft 7.2 m.

Type: Cargo ship. MMSI: 431300622.

Date/timePositionNaut miles runAvg speedWind from/ knotsBaromVisibWave heightAir tempDewpointWater temp
2015-Apr-19 04:14N 34°05' E 135°01'811.6
2015-Apr-19 03:33N 34°13' E 135°04'3 3.3
2015-Apr-19 02:34N 34°14' E 135°08'0 0.0
2015-Apr-19 01:34N 34°14' E 135°08'0 0.0
2015-Apr-19 00:31N 34°14' E 135°08'0 0.0
2015-Apr-18 23:31N 34°14' E 135°08'0 0.0
2015-Apr-18 22:31N 34°14' E 135°08'0 0.0
2015-Apr-18 21:31N 34°14' E 135°08'0 0.1
2015-Apr-18 20:34N 34°14' E 135°08'0 0.0
2015-Apr-18 19:31N 34°14' E 135°08'0 0.0
2015-Apr-18 18:31N 34°14' E 135°08'0 0.0
2015-Apr-18 17:25N 34°14' E 135°08'0 0.1
2015-Apr-18 16:28N 34°14' E 135°08'0 0.0
2015-Apr-18 15:31N 34°14' E 135°08'0 0.0
2015-Apr-18 14:31N 34°14' E 135°08'0 0.0
2015-Apr-18 13:31N 34°14' E 135°08'0 0.0
2015-Apr-18 12:28N 34°14' E 135°08'0 0.0
2015-Apr-18 11:28N 34°14' E 135°08'0 0.0
2015-Apr-18 10:34N 34°14' E 135°08'0 0.0
2015-Apr-18 09:28N 34°14' E 135°08'0 0.0
2015-Apr-18 08:34N 34°14' E 135°08'0 0.0
2015-Apr-18 07:28N 34°14' E 135°08'0 0.0
2015-Apr-18 04:31N 34°14' E 135°08'2 2.4
2015-Apr-18 03:33N 34°15' E 135°05'11 9.8
2015-Apr-18 02:29N 34°24' E 135°01'1112.3
2015-Apr-18 01:33N 34°36' E 135°03'1111.4
2015-Apr-18 00:33N 34°38' E 134°50'0 0.0
2015-Apr-17 12:10N 34°38' E 134°50'915.3
2015-Apr-17 11:33N 34°37' E 135°01'1313.3
2015-Apr-17 10:33N 34°24' E 135°03'1414.5
2015-Apr-17 09:33N 34°10' E 134°60'230 6.4
2015-Apr-15 21:27N 35°01' E 139°33'1112.6
2015-Apr-15 20:33N 35°08' E 139°44'1111.4
2015-Apr-15 19:33N 35°19' E 139°43'1212.0
2015-Apr-15 18:33N 35°29' E 139°51'4 4.3
2015-Apr-15 17:33N 35°30' E 139°56'0 0.0
2015-Apr-15 16:34N 35°30' E 139°56'0 0.0
2015-Apr-15 15:32N 35°30' E 139°56'0 0.0
2015-Apr-15 14:33N 35°30' E 139°56'0 0.0
2015-Apr-15 13:33N 35°30' E 139°56'0 0.0
2015-Apr-15 12:31N 35°30' E 139°56'0 0.0
2015-Apr-15 11:33N 35°30' E 139°56'0 0.0
2015-Apr-15 10:33N 35°30' E 139°56'0 0.1
2015-Apr-15 09:33N 35°30' E 139°56'0 0.1
2015-Apr-15 08:33N 35°30' E 139°56'1 0.6
2015-Apr-15 07:33N 35°30' E 139°57'3 2.6
2015-Apr-15 06:33N 35°28' E 139°59'0 0.0
2015-Apr-15 05:18N 35°28' E 139°59'0 0.0
2015-Apr-15 04:18N 35°28' E 139°59'0 0.0
2015-Apr-15 03:24N 35°28' E 139°59'0 0.0
2015-Apr-15 02:30N 35°28' E 139°59'0 0.0
2015-Apr-15 01:06N 35°28' E 139°59'1 0.4
2015-Apr-14 22:33N 35°29' E 139°59'2 1.6
2015-Apr-14 21:31N 35°30' E 139°57'0 0.0
2015-Apr-14 20:26N 35°30' E 139°57'0 0.0
2015-Apr-14 19:33N 35°30' E 139°57'0 0.0
2015-Apr-14 18:25N 35°30' E 139°57'0 0.1
2015-Apr-14 17:31N 35°30' E 139°57'0 0.0
2015-Apr-14 16:31N 35°30' E 139°57'0 0.0
2015-Apr-14 15:31N 35°30' E 139°57'0 0.0
2015-Apr-14 14:31N 35°29' E 139°57'0 0.0
2015-Apr-14 13:28N 35°29' E 139°57'0 0.0
2015-Apr-14 12:28N 35°29' E 139°57'0 0.0
2015-Apr-14 11:31N 35°29' E 139°57'0 0.0
2015-Apr-14 10:22N 35°29' E 139°57'0 0.0
2015-Apr-14 09:28N 35°29' E 139°57'0 0.0
2015-Apr-14 08:22N 35°29' E 139°57'0 0.0
2015-Apr-14 07:31N 35°29' E 139°57'0 0.3
2015-Apr-14 06:33N 35°29' E 139°56'1010.4
2015-Apr-14 05:33N 35°25' E 139°45'5 5.0
2015-Apr-14 04:33N 35°29' E 139°40'0 0.0
2015-Apr-14 03:32N 35°29' E 139°40'0 0.0
2015-Apr-14 02:32N 35°29' E 139°40'2 1.7
2015-Apr-14 01:34N 35°27' E 139°41'2 1.6
2015-Apr-14 00:32N 35°26' E 139°42'0 0.1
2015-Apr-13 23:32N 35°26' E 139°42'0 0.0
2015-Apr-13 22:32N 35°26' E 139°42'0 0.1
2015-Apr-13 21:32N 35°26' E 139°42'0 0.0
2015-Apr-13 20:32N 35°26' E 139°42'0 0.0
2015-Apr-13 19:32N 35°26' E 139°42'0 0.0
2015-Apr-13 18:32N 35°26' E 139°42'0 0.0
2015-Apr-13 17:29N 35°26' E 139°42'0 0.0
2015-Apr-13 16:32N 35°26' E 139°42'0 0.0
2015-Apr-13 15:29N 35°26' E 139°42'0 0.0
2015-Apr-13 14:32N 35°26' E 139°42'0 0.0
2015-Apr-13 13:29N 35°26' E 139°42'0 0.0
2015-Apr-13 12:32N 35°26' E 139°42'0 0.0
2015-Apr-13 11:32N 35°26' E 139°42'0 0.0
2015-Apr-13 10:32N 35°26' E 139°42'0 0.0
2015-Apr-13 09:32N 35°26' E 139°42'0 0.0
2015-Apr-13 08:34N 35°26' E 139°42'4 4.0
2015-Apr-13 07:34N 35°22' E 139°43'1010.0
2015-Apr-13 06:34N 35°12' E 139°47'1010.3
2015-Apr-13 05:34N 35°03' E 139°41'1110.6
2015-Apr-13 04:28N 34°56' E 139°30'  
2015-Apr-10 20:34N 34°05' E 135°02'7 7.1
2015-Apr-10 19:33N 34°10' E 135°08'0 0.0
2015-Apr-10 18:33N 34°10' E 135°08'0 0.0
2015-Apr-10 17:30N 34°10' E 135°08'0 0.0
2015-Apr-10 16:33N 34°10' E 135°08'0 0.0
2015-Apr-10 15:33N 34°10' E 135°08'0 0.0
2015-Apr-10 14:33N 34°10' E 135°08'0 0.0
2015-Apr-10 13:33N 34°10' E 135°08'0 0.0
2015-Apr-10 12:33N 34°10' E 135°08'0 0.0
2015-Apr-10 11:33N 34°10' E 135°08'0 0.0
2015-Apr-10 10:30N 34°10' E 135°08'0 0.0
2015-Apr-10 09:33N 34°10' E 135°08'0 0.0
2015-Apr-10 08:33N 34°10' E 135°08'0 0.0
2015-Apr-10 07:33N 34°10' E 135°08'3 3.4
2015-Apr-10 06:33N 34°13' E 135°06'2 2.0
2015-Apr-10 05:34N 34°14' E 135°08'0 0.0
2015-Apr-10 04:28N 34°14' E 135°08'0 0.0
2015-Apr-10 03:31N 34°14' E 135°08'0 0.0
2015-Apr-10 02:28N 34°14' E 135°08'0 0.0
2015-Apr-10 01:28N 34°14' E 135°08'0 0.0
2015-Apr-10 00:28N 34°14' E 135°08'0 0.0
2015-Apr-09 23:28N 34°14' E 135°08'0 0.0
2015-Apr-09 22:31N 34°14' E 135°08'0 0.0
2015-Apr-09 21:31N 34°14' E 135°08'0 0.0
2015-Apr-09 20:31N 34°14' E 135°08'0 0.0
2015-Apr-09 19:31N 34°14' E 135°08'0 0.0
2015-Apr-09 18:31N 34°14' E 135°08'0 0.0
2015-Apr-09 17:31N 34°14' E 135°08'0 0.0
2015-Apr-09 16:31N 34°14' E 135°08'0 0.2
2015-Apr-09 15:33N 34°14' E 135°08'2 1.8
2015-Apr-09 14:22N 34°15' E 135°05'0 0.0
2015-Apr-09 13:28N 34°15' E 135°05'0 0.0
2015-Apr-09 12:31N 34°15' E 135°05'0 0.0
2015-Apr-09 11:31N 34°15' E 135°05'0 0.0
2015-Apr-09 10:31N 34°15' E 135°05'5 5.7
2015-Apr-09 09:34N 34°16' E 134°59'1412.7
2015-Apr-09 08:29N 34°30' E 135°02'9 9.5
2015-Apr-09 07:33N 34°36' E 134°55'  
Track history (hours):
 
Tides and Currents Weather Stations Pressure Air Temp Water Temp Dewpoint Dewpoint Depression Visibility Wind Speed Wind Dir Waves Ship Positions

Taiki Maru

Last reported at 2015-Apr-19 04:14 UTC. Time now 2015-Apr-21 13:11 UTC.
Position N 34°05' E 135°01'.

Length 93 m; draft 7.2 m.

Type: Cargo ship. MMSI: 431300622.

Date/timePositionNaut miles runAvg speedWind from/ knotsBaromVisibWave heightAir tempDewpointWater temp
2015-Apr-19 04:14N 34°05' E 135°01'811.6
2015-Apr-19 03:33N 34°13' E 135°04'3 3.3
2015-Apr-19 02:34N 34°14' E 135°08'0 0.0
2015-Apr-19 01:34N 34°14' E 135°08'0 0.0
2015-Apr-19 00:31N 34°14' E 135°08'0 0.0
2015-Apr-18 23:31N 34°14' E 135°08'0 0.0
2015-Apr-18 22:31N 34°14' E 135°08'0 0.0
2015-Apr-18 21:31N 34°14' E 135°08'0 0.1
2015-Apr-18 20:34N 34°14' E 135°08'0 0.0
2015-Apr-18 19:31N 34°14' E 135°08'0 0.0
2015-Apr-18 18:31N 34°14' E 135°08'0 0.0
2015-Apr-18 17:25N 34°14' E 135°08'0 0.1
2015-Apr-18 16:28N 34°14' E 135°08'0 0.0
2015-Apr-18 15:31N 34°14' E 135°08'0 0.0
2015-Apr-18 14:31N 34°14' E 135°08'0 0.0
2015-Apr-18 13:31N 34°14' E 135°08'0 0.0
2015-Apr-18 12:28N 34°14' E 135°08'0 0.0
2015-Apr-18 11:28N 34°14' E 135°08'0 0.0
2015-Apr-18 10:34N 34°14' E 135°08'0 0.0
2015-Apr-18 09:28N 34°14' E 135°08'0 0.0
2015-Apr-18 08:34N 34°14' E 135°08'0 0.0
2015-Apr-18 07:28N 34°14' E 135°08'0 0.0
2015-Apr-18 04:31N 34°14' E 135°08'2 2.4
2015-Apr-18 03:33N 34°15' E 135°05'11 9.8
2015-Apr-18 02:29N 34°24' E 135°01'1112.3
2015-Apr-18 01:33N 34°36' E 135°03'1111.4
2015-Apr-18 00:33N 34°38' E 134°50'0 0.0
2015-Apr-17 12:10N 34°38' E 134°50'915.3
2015-Apr-17 11:33N 34°37' E 135°01'1313.3
2015-Apr-17 10:33N 34°24' E 135°03'1414.5
2015-Apr-17 09:33N 34°10' E 134°60'230 6.4
2015-Apr-15 21:27N 35°01' E 139°33'1112.6
2015-Apr-15 20:33N 35°08' E 139°44'1111.4
2015-Apr-15 19:33N 35°19' E 139°43'1212.0
2015-Apr-15 18:33N 35°29' E 139°51'4 4.3
2015-Apr-15 17:33N 35°30' E 139°56'0 0.0
2015-Apr-15 16:34N 35°30' E 139°56'0 0.0
2015-Apr-15 15:32N 35°30' E 139°56'0 0.0
2015-Apr-15 14:33N 35°30' E 139°56'0 0.0
2015-Apr-15 13:33N 35°30' E 139°56'0 0.0
2015-Apr-15 12:31N 35°30' E 139°56'0 0.0
2015-Apr-15 11:33N 35°30' E 139°56'0 0.0
2015-Apr-15 10:33N 35°30' E 139°56'0 0.1
2015-Apr-15 09:33N 35°30' E 139°56'0 0.1
2015-Apr-15 08:33N 35°30' E 139°56'1 0.6
2015-Apr-15 07:33N 35°30' E 139°57'3 2.6
2015-Apr-15 06:33N 35°28' E 139°59'0 0.0
2015-Apr-15 05:18N 35°28' E 139°59'0 0.0
2015-Apr-15 04:18N 35°28' E 139°59'0 0.0
2015-Apr-15 03:24N 35°28' E 139°59'0 0.0
2015-Apr-15 02:30N 35°28' E 139°59'0 0.0
2015-Apr-15 01:06N 35°28' E 139°59'1 0.4
2015-Apr-14 22:33N 35°29' E 139°59'2 1.6
2015-Apr-14 21:31N 35°30' E 139°57'0 0.0
2015-Apr-14 20:26N 35°30' E 139°57'0 0.0
2015-Apr-14 19:33N 35°30' E 139°57'0 0.0
2015-Apr-14 18:25N 35°30' E 139°57'0 0.1
2015-Apr-14 17:31N 35°30' E 139°57'0 0.0
2015-Apr-14 16:31N 35°30' E 139°57'0 0.0
2015-Apr-14 15:31N 35°30' E 139°57'0 0.0
2015-Apr-14 14:31N 35°29' E 139°57'0 0.0
2015-Apr-14 13:28N 35°29' E 139°57'0 0.0
2015-Apr-14 12:28N 35°29' E 139°57'0 0.0
2015-Apr-14 11:31N 35°29' E 139°57'0 0.0
2015-Apr-14 10:22N 35°29' E 139°57'0 0.0
2015-Apr-14 09:28N 35°29' E 139°57'0 0.0
2015-Apr-14 08:22N 35°29' E 139°57'0 0.0
2015-Apr-14 07:31N 35°29' E 139°57'0 0.3
2015-Apr-14 06:33N 35°29' E 139°56'1010.4
2015-Apr-14 05:33N 35°25' E 139°45'5 5.0
2015-Apr-14 04:33N 35°29' E 139°40'0 0.0
2015-Apr-14 03:32N 35°29' E 139°40'0 0.0
2015-Apr-14 02:32N 35°29' E 139°40'2 1.7
2015-Apr-14 01:34N 35°27' E 139°41'2 1.6
2015-Apr-14 00:32N 35°26' E 139°42'0 0.1
2015-Apr-13 23:32N 35°26' E 139°42'0 0.0
2015-Apr-13 22:32N 35°26' E 139°42'0 0.1
2015-Apr-13 21:32N 35°26' E 139°42'0 0.0
2015-Apr-13 20:32N 35°26' E 139°42'0 0.0
2015-Apr-13 19:32N 35°26' E 139°42'0 0.0
2015-Apr-13 18:32N 35°26' E 139°42'0 0.0
2015-Apr-13 17:29N 35°26' E 139°42'0 0.0
2015-Apr-13 16:32N 35°26' E 139°42'0 0.0
2015-Apr-13 15:29N 35°26' E 139°42'0 0.0
2015-Apr-13 14:32N 35°26' E 139°42'0 0.0
2015-Apr-13 13:29N 35°26' E 139°42'0 0.0
2015-Apr-13 12:32N 35°26' E 139°42'0 0.0
2015-Apr-13 11:32N 35°26' E 139°42'0 0.0
2015-Apr-13 10:32N 35°26' E 139°42'0 0.0
2015-Apr-13 09:32N 35°26' E 139°42'0 0.0
2015-Apr-13 08:34N 35°26' E 139°42'4 4.0
2015-Apr-13 07:34N 35°22' E 139°43'1010.0
2015-Apr-13 06:34N 35°12' E 139°47'1010.3
2015-Apr-13 05:34N 35°03' E 139°41'1110.6
2015-Apr-13 04:28N 34°56' E 139°30'  
2015-Apr-10 20:34N 34°05' E 135°02'7 7.1
2015-Apr-10 19:33N 34°10' E 135°08'0 0.0
2015-Apr-10 18:33N 34°10' E 135°08'0 0.0
2015-Apr-10 17:30N 34°10' E 135°08'0 0.0
2015-Apr-10 16:33N 34°10' E 135°08'0 0.0
2015-Apr-10 15:33N 34°10' E 135°08'0 0.0
2015-Apr-10 14:33N 34°10' E 135°08'0 0.0
2015-Apr-10 13:33N 34°10' E 135°08'0 0.0
2015-Apr-10 12:33N 34°10' E 135°08'0 0.0
2015-Apr-10 11:33N 34°10' E 135°08'0 0.0
2015-Apr-10 10:30N 34°10' E 135°08'0 0.0
2015-Apr-10 09:33N 34°10' E 135°08'0 0.0
2015-Apr-10 08:33N 34°10' E 135°08'0 0.0
2015-Apr-10 07:33N 34°10' E 135°08'3 3.4
2015-Apr-10 06:33N 34°13' E 135°06'2 2.0
2015-Apr-10 05:34N 34°14' E 135°08'0 0.0
2015-Apr-10 04:28N 34°14' E 135°08'0 0.0
2015-Apr-10 03:31N 34°14' E 135°08'0 0.0
2015-Apr-10 02:28N 34°14' E 135°08'0 0.0
2015-Apr-10 01:28N 34°14' E 135°08'0 0.0
2015-Apr-10 00:28N 34°14' E 135°08'0 0.0
2015-Apr-09 23:28N 34°14' E 135°08'0 0.0
2015-Apr-09 22:31N 34°14' E 135°08'0 0.0
2015-Apr-09 21:31N 34°14' E 135°08'0 0.0
2015-Apr-09 20:31N 34°14' E 135°08'0 0.0
2015-Apr-09 19:31N 34°14' E 135°08'0 0.0
2015-Apr-09 18:31N 34°14' E 135°08'0 0.0
2015-Apr-09 17:31N 34°14' E 135°08'0 0.0
2015-Apr-09 16:31N 34°14' E 135°08'0 0.2
2015-Apr-09 15:33N 34°14' E 135°08'2 1.8
2015-Apr-09 14:22N 34°15' E 135°05'0 0.0
2015-Apr-09 13:28N 34°15' E 135°05'0 0.0
2015-Apr-09 12:31N 34°15' E 135°05'0 0.0
2015-Apr-09 11:31N 34°15' E 135°05'0 0.0
2015-Apr-09 10:31N 34°15' E 135°05'5 5.7
2015-Apr-09 09:34N 34°16' E 134°59'1412.7
2015-Apr-09 08:29N 34°30' E 135°02'9 9.5
2015-Apr-09 07:33N 34°36' E 134°55'  

Dump ship's entire track history